x

Portlock Bank- 76nm Ene Of Kodiak, Ak (46080) Wave Buoy

10:50pm - Sat 30th Aug 2014 All times are AKDT. -8 hours from GMT.

  • Sig Wave height 3.9ft
  • Peak Period 15s
  • Average Period 6s
  • Wind
    4mph, 7mph gusts
  • Sea Temp 53°f
  • Air Temp 53°f
  • Sea Pressure 1001.5mb
  • Portlock Bank- 76nm Ene Of Kodiak, Ak
  • Portlock Bank- 76nm Ene Of Kodiak, Ak

More Historic Weather Station data

Upgrade to MSW Pro to gain access to the past 30 days of data for over 8000 Wavebouys and Weather Stations around the globe.

Join Pro

Comparision Forecast

View Surf forecast
   
Sat 08/30 10:50pm 4ft 15s 6s 4 7 mph 1001.5mb 53f 53f
9:50pm 4ft 15s 6s 4 7 mph 1001.2mb 53f 53f
8:50pm 3.5ft 15s 6s 4 7 mph 1000.8mb 53f 53f
7:50pm 4ft 15s 6s 7
mph
1000.8mb 53f 53f
6:50pm 3.5ft 15s 6s 4
mph
1000.8mb 53f 53f
5:50pm 4ft 15s 6s 2 4 mph 1001.1mb 53f 53f
4:50pm 3.5ft 7s 6s 2 4 mph 1001.1mb 53f 53f
3:50pm 4ft 15s 6s 4
mph
1001.3mb 53f 54f
2:50pm 4.5ft 6s 6s 4
mph
1001.5mb 54f 54f
1:50pm 4.5ft 15s 6s 4
mph
1001.6mb 53f 53f
12:50pm 5ft 15s 6s 4
mph
1002.1mb 53f 53f
11:50am 4.5ft 7s 5s 4 7 mph 1002.2mb 53f 53f
10:50am 5ft 7s 5s 7
mph
1002.2mb 54f 53f
9:50am 5ft 7s 5s 9
mph
1002.3mb 53f 53f
8:50am 5ft 6s 5s 9 11 mph 1002.4mb 53f 54f
7:50am 5ft 6s 5s 9 11 mph 1002.4mb 53f 54f
6:50am 4.5ft 6s 5s 11
mph
1002.5mb 53f 54f
5:50am 4.5ft 6s 5s 9 13 mph 1002.5mb 53f 54f
4:50am 4.5ft 6s 5s 11 13 mph 1002.3mb 53f 54f
3:50am 4.5ft 7s 5s 11 13 mph 1002.6mb 53f 54f
2:50am 4.5ft 7s 5s 13 16 mph 1002.7mb 53f 54f
1:50am 5ft 8s 6s 13 16 mph 1003.1mb 53f 55f
12:50am 4.5ft 8s 6s 13 16 mph 1003mb 54f 55f
Fri 08/29 11:50pm 5ft 7s 5s 11 13 mph 1002.9mb 54f 55f
10:50pm 5ft 7s 6s 9
mph
1002.9mb 54f 55f
9:50pm 5.5ft 8s 5s 9
mph
1002.9mb 54f 54f
8:50pm 6ft 8s 5s 9 11 mph 1003mb 54f 55f
7:50pm 6ft 8s 6s 11 13 mph 1002.8mb 54f 55f
6:50pm 6ft 8s 6s 11 13 mph 1002.7mb 54f 56f
5:50pm 6ft 8s 6s 11 13 mph 1002.5mb 54f 55f
4:50pm 6.5ft 6s 6s 13 16 mph 1002.5mb 54f 55f
3:50pm 6.5ft 8s 5s 18 20 mph 1002.5mb 53f 55f
2:50pm 6ft 8s 5s 16 22 mph 1002.6mb 53f 55f
1:50pm 5.5ft 8s 5s 18 22 mph 1002.5mb 54f 55f
12:50pm 6ft 5s 6s 16 22 mph 1002.2mb 54f 55f
11:50am 6.5ft 5s 5s 16 20 mph 1002.1mb 53f 55f
10:50am 6ft 9s 5s 18 22 mph 1001.8mb 53f 55f
9:50am 6ft 8s 5s 20 25 mph 1001.7mb 53f 55f
8:50am 6ft 8s 5s 22 25 mph 1001.8mb 54f 55f
7:50am 5ft 7s 5s 20 25 mph 1001.9mb 54f 55f
6:50am 5ft 7s 5s 16 20 mph 1002mb 54f 54f
5:50am 5ft 7s 5s 18 22 mph 1002mb 54f 54f
4:50am 5ft 7s 5s 20 25 mph 1001.7mb 54f 54f
3:50am 5ft 7s 5s 20 25 mph 1001.8mb 54f 53f
2:50am 5ft 7s 5s 20 22 mph 1001.4mb 55f 53f
1:50am 4.5ft 9s 5s 18 20 mph 1001.5mb 55f 53f
12:50am 5.5ft 10s 6s 16 20 mph 1001.8mb 54f 54f
Thu 08/28 11:50pm 6ft 10s 6s 11 16 mph 1001.9mb 54f 54f
10:50pm 5.5ft 10s 6s 9 11 mph 1001.7mb 54f 54f
9:50pm 6ft 9s 6s 9 11 mph 1001.7mb 54f 55f
8:50pm 6.5ft 9s 7s 9 11 mph 1001.4mb 54f 55f
7:50pm 7ft 10s 7s 7 9 mph 1001.3mb 55f 55f
6:50pm 6ft 10s 7s 7
mph
1001.2mb 55f 56f
5:50pm 5.5ft 9s 6s 4
mph
1001.2mb 56f 56f
4:50pm 5ft 10s 6s 4 7 mph 1000.9mb 56f 56f
3:50pm 5ft 9s 6s 2 4 mph 1000.7mb 55f 56f
2:50pm 5.5ft 10s 6s 2
mph
1000.6mb 55f 56f
1:50pm 6ft 9s 6s 2 4 mph 1000.5mb 55f 55f
12:50pm 6ft 7s 6s 7
mph
1000.4mb 54f 55f
11:50am 7ft 9s 6s 9
mph
1000.1mb 54f 55f
10:50am 8.5ft 9s 6s 7 9 mph 999.7mb 54f 55f
9:50am 8.5ft 8s 6s 7 9 mph 999.4mb 54f 55f
8:50am 8ft 8s 6s 4 7 mph 999.1mb 54f 55f
7:50am 7ft 8s 6s 9
mph
998.8mb 53f 55f
6:50am 7ft 8s 6s 4 7 mph 998.6mb 54f 54f
5:50am 6ft 8s 6s 4 7 mph 998.4mb 54f 55f
4:50am 7ft 8s 6s 16 20 mph 998mb 54f 55f
3:50am 6ft 7s 6s 11 18 mph 998mb 54f 55f
2:50am 5.5ft 7s 6s 4
mph
998.4mb 54f 55f
1:50am 6ft 7s 5s 9
mph
998.8mb 54f 54f
12:50am 6ft 8s 5s 11 13 mph 999mb 54f 55f
Wed 08/27 11:50pm 7ft 8s 5s 16 18 mph 999.2mb 54f 55f
10:50pm 9ft 7s 6s 16 18 mph 999.8mb 54f 55f
9:50pm 9ft 7s 5s 18 22 mph 1000.4mb 54f 55f
8:50pm 8.5ft 7s 6s 20 25 mph 1001.3mb 54f 55f
7:50pm 8ft 7s 6s 18 22 mph 1002.5mb 54f 55f
6:50pm 7ft 6s 5s 25 29 mph 1003.5mb 54f 55f
5:50pm 6ft 6s 5s 27 34 mph 1004.9mb 55f 55f
4:50pm 5ft 4s 4s 25 31 mph 1006.5mb 55f 54f
3:50pm 4ft 4s 4s 22 27 mph 1008.1mb 55f 54f
2:50pm 4ft 6s 4s 20 25 mph 1009.4mb 55f 54f
1:50pm 3.5ft 12s 4s 16 18 mph 1010.3mb 54f 55f
12:50pm 4ft 7s 5s 18 20 mph 1011mb 55f 56f
11:50am 4.5ft 9s 5s 13 16 mph 1011.8mb 55f 56f
10:50am 4.5ft 7s 6s 11 13 mph 1012.5mb 55f 55f
9:50am 4ft 8s 6s 9 11 mph 1013mb 55f 55f
8:50am 4ft 8s 6s 9 11 mph 1013.6mb 55f 55f
7:50am 3.5ft 7s 6s 11 13 mph 1013.8mb 55f 55f